Leonardville, Kansas
Current Conditions -  °F | °C
As of 6:27 AM on Monday 20 Oct 2014 (Local Time) from KMHK Reporting Station
Haze Haze  
Wind Chill: 43°   Ceiling: Unl
Heat Index: 43°   Visibility: 2mi
Dew Point: 43°   Wind: 0mph
Humidity: 100%   Direction: NA
Pressure: 30.03"   Gusts: NA
Location:  39.36°N, 96.86°W
Report Text: KMHK 201127Z AUTO 00000KT 2SM BR FEW008 06/06 A3003 RMK AO2 VIS 3/4V5 T00610061 TSNO
Loading
Personal Weather Stations






























Interactive Weather Map
Tropical Storm Tracking
New forecast layout! Learn more

10-Day Weather Forecast

Advertisements
Track Severe Weather on mobile